Time;durP1;ratioP1;P1;durP2;ratioP2;P2;SDS_P1;SDS_P2;PMS_P1;PMS_P2;Temp;Humidity;BMP_temperature;BMP_pressure;BME280_temperature;BME280_humidity;BME280_pressure;Samples;Min_cycle;Max_cycle;Signal;HPM_P1;HPM_P2
2021/10/22 00:00:38;;;;;;;;;;;;;;;22.71;29.40;97886.63;5044126;28;767;-79
2021/10/22 00:03:04;;;;;;;;;;;;;;;22.66;29.22;97890.03;5042200;28;803;-78
2021/10/22 00:05:32;;;;;;;;;;;;;;;22.30;30.04;97896.06;5043879;28;719;-78
2021/10/22 00:07:58;;;;;;;;;;;;;;;22.52;29.57;97896.16;5040642;28;906;-79
2021/10/22 00:10:24;;;;;;;;;;;;;;;22.42;29.96;97897.31;5041042;28;961;-78
2021/10/22 00:12:49;;;;;;;;;;;;;;;22.48;29.76;97898.31;5040691;28;924;-79
2021/10/22 00:15:14;;;;;;;;;;;;;;;22.41;29.96;97895.72;5039930;28;1235;-78
2021/10/22 00:17:40;;;;;;;;;;;;;;;22.42;30.07;97891.63;5041461;28;1906;-79
2021/10/22 00:20:07;;;;;;;;;;;;;;;22.06;30.46;97881.38;5039530;28;845;-79
2021/10/22 00:22:34;;;;;;;;;;;;;;;22.22;30.28;97884.13;5041436;28;885;-79
2021/10/22 00:24:59;;;;;;;;;;;;;;;22.18;30.30;97877.81;5019568;28;981;-79
2021/10/22 00:27:24;;;;;;;;;;;;;;;22.21;30.33;97882.56;5021787;28;1491;-79
2021/10/22 00:29:50;;;;;;;;;;;;;;;22.03;31.12;97877.41;5019856;28;786;-79
2021/10/22 00:32:15;;;;;;;;;;;;;;;21.98;30.83;97880.81;5021158;28;850;-79
2021/10/22 00:34:41;;;;;;;;;;;;;;;22.58;29.94;97877.34;5019677;28;808;-79
2021/10/22 00:37:06;;;;;;;;;;;;;;;22.57;29.64;97875.75;5020863;28;1902;-79
2021/10/22 00:39:32;;;;;;;;;;;;;;;22.84;29.48;97873.22;5019106;28;1263;-79
2021/10/22 00:41:57;;;;;;;;;;;;;;;22.97;29.18;97883.78;5020638;28;841;-79
2021/10/22 00:44:23;;;;;;;;;;;;;;;22.58;29.88;97891.50;5018857;28;1005;-79
2021/10/22 00:46:48;;;;;;;;;;;;;;;22.90;29.67;97886.84;5021051;28;773;-79
2021/10/22 00:49:14;;;;;;;;;;;;;;;23.03;28.92;97890.47;5018743;28;1021;-79
2021/10/22 00:51:39;;;;;;;;;;;;;;;22.77;29.01;97889.69;5021109;28;814;-79
2021/10/22 00:54:05;;;;;;;;;;;;;;;22.67;29.20;97894.47;5019323;28;1014;-79
2021/10/22 00:56:31;;;;;;;;;;;;;;;22.53;29.56;97887.19;5035633;28;1910;-79
2021/10/22 00:58:57;;;;;;;;;;;;;;;22.30;30.09;97891.19;5039493;28;741;-79
2021/10/22 01:01:22;;;;;;;;;;;;;;;22.38;29.97;97885.28;5001222;28;846;-79
2021/10/22 01:03:48;;;;;;;;;;;;;;;22.40;29.62;97886.44;4999326;28;906;-79
2021/10/22 01:06:14;;;;;;;;;;;;;;;22.20;30.24;97891.50;5000966;28;1142;-78
2021/10/22 01:08:39;;;;;;;;;;;;;;;22.19;30.08;97887.09;4950646;28;872;-79
2021/10/22 01:11:05;;;;;;;;;;;;;;;22.24;29.96;97884.50;5001574;28;793;-78
2021/10/22 01:13:30;;;;;;;;;;;;;;;22.37;29.52;97887.31;4999104;28;783;-79
2021/10/22 01:15:56;;;;;;;;;;;;;;;22.30;29.68;97890.38;5001577;28;1101;-78
2021/10/22 01:18:23;;;;;;;;;;;;;;;22.07;30.79;97888.63;4998848;28;1981;-78
2021/10/22 01:20:50;;;;;;;;;;;;;;;22.56;30.12;97889.13;5001695;28;874;-79
2021/10/22 01:23:17;;;;;;;;;;;;;;;22.54;30.10;97888.81;4998299;28;953;-79
2021/10/22 01:25:43;;;;;;;;;;;;;;;22.73;29.36;97881.28;5000476;28;703;-78
2021/10/22 01:28:08;;;;;;;;;;;;;;;22.75;29.58;97870.31;4998487;28;941;-78
2021/10/22 01:30:33;;;;;;;;;;;;;;;22.77;29.54;97878.34;4999977;28;820;-78
2021/10/22 01:33:01;;;;;;;;;;;;;;;23.06;28.94;97883.88;5030402;28;914;-79
2021/10/22 01:35:27;;;;;;;;;;;;;;;22.56;29.73;97879.84;5041234;28;786;-78
2021/10/22 01:37:52;;;;;;;;;;;;;;;22.79;29.73;97887.97;5041041;28;1910;-79
2021/10/22 01:40:18;;;;;;;;;;;;;;;22.86;29.29;97889.78;5041128;28;723;-79
2021/10/22 01:42:43;;;;;;;;;;;;;;;22.88;28.88;97893.78;5041080;28;770;-79
2021/10/22 01:45:09;;;;;;;;;;;;;;;22.56;29.45;97896.84;5018920;28;931;-79
2021/10/22 01:47:34;;;;;;;;;;;;;;;22.46;29.41;97898.78;5020038;28;896;-79
2021/10/22 01:50:00;;;;;;;;;;;;;;;22.48;29.46;97895.47;5018986;28;901;-78
2021/10/22 01:52:25;;;;;;;;;;;;;;;22.50;29.65;97887.34;5020354;28;783;-79
2021/10/22 01:54:51;;;;;;;;;;;;;;;22.47;29.83;97885.41;5017781;28;794;-79
2021/10/22 01:57:17;;;;;;;;;;;;;;;22.33;29.94;97883.81;5019226;28;1906;-79
2021/10/22 01:59:46;;;;;;;;;;;;;;;22.34;29.84;97889.03;5018481;28;956;-79
2021/10/22 02:02:12;;;;;;;;;;;;;;;22.27;29.94;97892.06;5020504;28;958;-78
2021/10/22 02:04:39;;;;;;;;;;;;;;;22.20;30.04;97892.31;5018250;28;935;-78
2021/10/22 02:07:04;;;;;;;;;;;;;;;22.30;30.07;97888.34;5020113;28;899;-78
2021/10/22 02:09:30;;;;;;;;;;;;;;;21.95;30.80;97895.06;5018181;28;877;-78
2021/10/22 02:11:55;;;;;;;;;;;;;;;22.22;30.18;97898.31;5019944;28;1119;-79
2021/10/22 02:14:21;;;;;;;;;;;;;;;22.52;29.94;97902.63;5017684;28;1356;-79
2021/10/22 02:16:47;;;;;;;;;;;;;;;22.39;30.10;97898.22;5036393;28;1969;-79
2021/10/22 02:19:12;;;;;;;;;;;;;;;22.60;30.03;97903.22;5039834;28;841;-79
2021/10/22 02:21:39;;;;;;;;;;;;;;;22.57;29.78;97898.44;5040915;28;786;-79
2021/10/22 02:24:05;;;;;;;;;;;;;;;23.01;29.07;97892.97;5039733;28;847;-79
2021/10/22 02:26:30;;;;;;;;;;;;;;;23.09;29.18;97903.63;5040968;28;810;-78
2021/10/22 02:28:57;;;;;;;;;;;;;;;22.93;29.32;97897.31;5039264;28;822;-79
2021/10/22 02:31:23;;;;;;;;;;;;;;;22.32;30.23;97907.72;5041537;28;770;-79
2021/10/22 02:33:49;;;;;;;;;;;;;;;22.70;29.26;97902.06;5040256;28;802;-79
2021/10/22 02:36:14;;;;;;;;;;;;;;;22.53;29.65;97906.25;5007051;28;1891;-78
2021/10/22 02:38:40;;;;;;;;;;;;;;;22.39;29.35;97916.03;5039410;28;995;-79
2021/10/22 02:41:07;;;;;;;;;;;;;;;22.29;30.01;97912.28;5041903;28;809;-80
2021/10/22 02:43:32;;;;;;;;;;;;;;;22.34;29.83;97908.88;5038642;28;783;-79
2021/10/22 02:45:58;;;;;;;;;;;;;;;22.40;29.92;97911.94;5039985;28;890;-79
2021/10/22 02:48:23;;;;;;;;;;;;;;;22.19;30.19;97912.59;5041653;28;809;-78
2021/10/22 02:50:49;;;;;;;;;;;;;;;22.36;29.66;97912.03;5046198;28;716;-78
2021/10/22 02:53:15;;;;;;;;;;;;;;;22.28;29.93;97909.91;5043183;28;683;-79
2021/10/22 02:55:41;;;;;;;;;;;;;;;22.24;30.12;97909.22;5045060;28;783;-78
2021/10/22 02:58:07;;;;;;;;;;;;;;;22.12;30.66;97916.41;5042337;28;1977;-79
2021/10/22 03:00:32;;;;;;;;;;;;;;;22.74;29.69;97919.78;5044120;28;846;-79
2021/10/22 03:02:58;;;;;;;;;;;;;;;22.49;29.75;97914.09;5043142;28;849;-79
2021/10/22 03:05:23;;;;;;;;;;;;;;;22.74;29.58;97916.94;5043775;28;789;-79
2021/10/22 03:07:49;;;;;;;;;;;;;;;22.70;29.43;97913.41;5043372;28;813;-79
2021/10/22 03:10:14;;;;;;;;;;;;;;;22.76;29.28;97910.81;5042844;28;818;-78
2021/10/22 03:12:42;;;;;;;;;;;;;;;22.93;29.02;97923.63;5043873;28;735;-78
2021/10/22 03:15:07;;;;;;;;;;;;;;;23.34;28.18;97910.47;5042545;28;1401;-79
2021/10/22 03:17:33;;;;;;;;;;;;;;;23.20;28.20;97914.59;5025394;28;1972;-79
2021/10/22 03:19:58;;;;;;;;;;;;;;;22.73;28.80;97929.50;5042776;28;888;-79
2021/10/22 03:22:23;;;;;;;;;;;;;;;22.59;29.00;97925.09;5044475;28;753;-79
2021/10/22 03:24:49;;;;;;;;;;;;;;;22.39;29.73;97926.56;5042495;28;699;-79
2021/10/22 03:27:15;;;;;;;;;;;;;;;22.45;29.66;97930.44;5044200;28;905;-79
2021/10/22 03:29:41;;;;;;;;;;;;;;;22.44;29.47;97928.84;5042849;28;1094;-78
2021/10/22 03:32:06;;;;;;;;;;;;;;;22.28;29.90;97933.38;5044435;28;755;-78
2021/10/22 03:34:32;;;;;;;;;;;;;;;22.19;30.16;97941.72;5042512;28;981;-79
2021/10/22 03:36:57;;;;;;;;;;;;;;;22.32;29.88;97947.41;5044019;28;1975;-79
2021/10/22 03:39:23;;;;;;;;;;;;;;;22.13;30.22;97939.91;5042084;28;814;-79
2021/10/22 03:41:48;;;;;;;;;;;;;;;22.28;29.79;97941.88;5044104;28;1114;-77
2021/10/22 03:44:14;;;;;;;;;;;;;;;22.32;29.86;97938.91;5042228;28;758;-79
2021/10/22 03:46:39;;;;;;;;;;;;;;;22.19;29.88;97947.41;5043855;28;787;-79
2021/10/22 03:49:05;;;;;;;;;;;;;;;22.12;30.21;97941.94;5041951;28;762;-79
2021/10/22 03:51:30;;;;;;;;;;;;;;;22.17;30.21;97941.38;5043454;28;1084;-79
2021/10/22 03:53:55;;;;;;;;;;;;;;;22.45;30.15;97936.09;5042001;28;771;-79
2021/10/22 03:56:21;;;;;;;;;;;;;;;22.50;29.66;97944.03;5043540;28;1901;-79
2021/10/22 03:58:46;;;;;;;;;;;;;;;22.77;29.23;97947.22;5041510;28;751;-79
2021/10/22 04:01:12;;;;;;;;;;;;;;;23.15;28.68;97952.06;5034283;28;1760;-79
2021/10/22 04:03:38;;;;;;;;;;;;;;;22.10;30.53;97944.41;5023476;28;1668;-78
2021/10/22 04:06:03;;;;;;;;;;;;;;;22.87;29.43;97946.06;5044134;28;938;-79
2021/10/22 04:08:29;;;;;;;;;;;;;;;23.19;28.79;97930.03;5040136;28;1627;-78
2021/10/22 04:10:54;;;;;;;;;;;;;;;23.08;28.60;97943.81;5024569;28;1004;-79
2021/10/22 04:13:20;;;;;;;;;;;;;;;22.79;29.03;97939.03;5036753;28;1689;-79
2021/10/22 04:15:48;;;;;;;;;;;;;;;22.41;29.49;97946.75;5044823;28;1041;-79
2021/10/22 04:18:14;;;;;;;;;;;;;;;22.43;29.36;97949.91;5033379;28;1917;-78
2021/10/22 04:20:39;;;;;;;;;;;;;;;22.27;29.91;97948.75;5024057;28;924;-78
2021/10/22 04:23:04;;;;;;;;;;;;;;;22.42;29.84;97951.16;5019597;28;1658;-79
2021/10/22 04:25:30;;;;;;;;;;;;;;;22.28;29.95;97938.25;5021616;28;934;-78
2021/10/22 04:27:56;;;;;;;;;;;;;;;22.20;29.96;97951.81;5020448;28;1093;-79
2021/10/22 04:30:21;;;;;;;;;;;;;;;22.29;29.85;97943.44;5020562;28;1034;-79
2021/10/22 04:32:47;;;;;;;;;;;;;;;22.32;29.60;97945.38;5020497;28;1635;-79
2021/10/22 04:35:13;;;;;;;;;;;;;;;22.31;29.85;97949.44;5019857;28;929;-79
2021/10/22 04:40:31;;;;;;;;;;;;;;;22.28;30.11;97949.56;5019832;28;906;-79
2021/10/22 04:42:59;;;;;;;;;;;;;;;21.51;31.55;97940.81;5019599;28;1627;-79
2021/10/22 04:45:25;;;;;;;;;;;;;;;22.38;30.09;97941.97;5020371;28;995;-79
2021/10/22 04:47:50;;;;;;;;;;;;;;;22.57;29.64;97950.28;5020327;28;1015;-79
2021/10/22 04:50:15;;;;;;;;;;;;;;;22.03;30.56;97936.91;5019495;28;1124;-78
2021/10/22 04:52:41;;;;;;;;;;;;;;;22.97;29.01;97949.06;5019963;28;1508;-79
2021/10/22 04:55:07;;;;;;;;;;;;;;;22.98;28.96;97947.78;4982031;28;1498;-79
2021/10/22 04:57:33;;;;;;;;;;;;;;;23.20;28.54;97942.97;4980783;28;1911;-78
2021/10/22 04:59:58;;;;;;;;;;;;;;;22.52;29.93;97952.88;4978993;28;1489;-79
2021/10/22 05:02:24;;;;;;;;;;;;;;;22.87;29.04;97965.13;4981643;28;1050;-79
2021/10/22 05:04:49;;;;;;;;;;;;;;;22.72;28.87;97961.19;4980036;28;1497;-79
2021/10/22 05:07:14;;;;;;;;;;;;;;;22.49;29.51;97962.31;4999565;28;968;-78
2021/10/22 05:09:40;;;;;;;;;;;;;;;22.53;29.14;97965.81;4998207;28;1702;-79
2021/10/22 05:12:06;;;;;;;;;;;;;;;22.44;29.35;97968.53;5000006;28;1728;-79
2021/10/22 05:14:37;;;;;;;;;;;;;;;22.35;29.73;97966.38;4999056;28;1017;-79
2021/10/22 05:17:03;;;;;;;;;;;;;;;22.38;29.71;97965.44;5000484;28;1977;-79
2021/10/22 05:19:28;;;;;;;;;;;;;;;22.32;29.91;97979.38;4999407;28;935;-79
2021/10/22 05:21:54;;;;;;;;;;;;;;;21.36;29.83;97823.56;4983807;28;1585;-79
2021/10/22 05:24:20;;;;;;;;;;;;;;;22.34;29.81;97979.75;4979425;28;989;-79
2021/10/22 05:26:45;;;;;;;;;;;;;;;22.34;29.67;97982.56;4981423;28;964;-79
2021/10/22 05:29:11;;;;;;;;;;;;;;;22.20;29.75;97982.19;4947522;28;1014;-79
2021/10/22 05:31:36;;;;;;;;;;;;;;;22.08;30.34;97986.56;4981339;28;1000;-78
2021/10/22 05:34:01;;;;;;;;;;;;;;;22.20;30.57;97997.16;4984153;28;1605;-79
2021/10/22 05:36:27;;;;;;;;;;;;;;;22.48;30.09;97997.56;5020352;28;1957;-79
2021/10/22 05:38:53;;;;;;;;;;;;;;;22.77;29.58;97998.28;5018693;28;1046;-79
2021/10/22 05:41:19;;;;;;;;;;;;;;;22.65;29.73;97999.06;5020361;28;1035;-79
2021/10/22 05:43:44;;;;;;;;;;;;;;;23.05;28.64;98004.31;5017789;28;1548;-79
2021/10/22 05:46:11;;;;;;;;;;;;;;;22.81;29.21;97998.97;5020346;28;978;-79
2021/10/22 05:48:36;;;;;;;;;;;;;;;22.94;29.19;98007.50;5017157;28;974;-79
2021/10/22 05:51:02;;;;;;;;;;;;;;;23.04;28.74;98006.34;5020393;28;872;-79
2021/10/22 05:53:27;;;;;;;;;;;;;;;22.84;28.87;98009.38;5016947;28;1628;-79
2021/10/22 05:55:53;;;;;;;;;;;;;;;22.70;29.20;98021.19;5022883;28;963;-79
2021/10/22 05:58:19;;;;;;;;;;;;;;;22.58;29.38;98030.47;5020279;28;1910;-79
2021/10/22 06:00:45;;;;;;;;;;;;;;;22.44;29.53;98025.25;5022665;28;937;-78
2021/10/22 06:03:10;;;;;;;;;;;;;;;22.42;29.75;98030.56;5031546;28;1647;-79
2021/10/22 06:05:39;;;;;;;;;;;;;;;22.35;29.87;98023.84;5037822;28;1742;-79
2021/10/22 06:08:05;;;;;;;;;;;;;;;22.33;30.01;98023.50;5025833;28;1612;-79
2021/10/22 06:10:30;;;;;;;;;;;;;;;22.36;30.01;98035.97;5019268;28;886;-78
2021/10/22 06:12:56;;;;;;;;;;;;;;;22.21;30.06;98044.09;5018668;28;944;-78
2021/10/22 06:15:21;;;;;;;;;;;;;;;22.24;30.16;98046.03;5018981;28;1502;-79
2021/10/22 06:17:47;;;;;;;;;;;;;;;22.40;30.16;98044.38;5001755;28;1983;-78
2021/10/22 06:20:15;;;;;;;;;;;;;;;22.31;30.52;98057.16;5018518;28;968;-79
2021/10/22 06:25:26;;;;;;;;;;;;;;;22.59;30.15;98052.72;5021945;28;1648;-79
2021/10/22 06:27:52;;;;;;;;;;;;;;;22.58;29.90;98058.81;5021793;28;1637;-79
2021/10/22 06:30:18;;;;;;;;;;;;;;;22.97;29.34;98054.03;5021173;28;1593;-79
2021/10/22 06:32:43;;;;;;;;;;;;;;;23.18;29.10;98059.03;5003263;28;911;-79
2021/10/22 06:35:09;;;;;;;;;;;;;;;22.85;29.55;98066.94;5002046;28;1006;-78
2021/10/22 06:37:34;;;;;;;;;;;;;;;22.96;29.49;98067.44;5002902;28;1906;-78
2021/10/22 06:39:59;;;;;;;;;;;;;;;22.86;29.25;98062.84;5002009;28;1169;-79
2021/10/22 06:42:25;;;;;;;;;;;;;;;22.65;29.62;98064.31;5021338;28;1687;-79
2021/10/22 06:44:50;;;;;;;;;;;;;;;22.35;30.12;98071.25;5021759;28;1023;-79
2021/10/22 06:47:16;;;;;;;;;;;;;;;22.40;29.90;98059.34;5023823;28;1014;-79
2021/10/22 06:49:41;;;;;;;;;;;;;;;22.53;30.03;98068.69;5021010;28;1031;-79
2021/10/22 06:52:07;;;;;;;;;;;;;;;22.41;29.87;98077.94;4988828;28;1519;-78
2021/10/22 06:54:32;;;;;;;;;;;;;;;22.29;30.33;98082.34;5041252;28;958;-79
2021/10/22 06:56:58;;;;;;;;;;;;;;;22.40;30.09;98089.75;5042831;28;1914;-79
2021/10/22 06:59:23;;;;;;;;;;;;;;;22.49;29.85;98085.03;5041273;28;1025;-79
2021/10/22 07:01:49;;;;;;;;;;;;;;;22.28;30.10;98099.81;5023156;28;1701;-78
2021/10/22 07:04:15;;;;;;;;;;;;;;;22.08;30.63;98083.69;5023595;28;915;-79
2021/10/22 07:09:24;;;;;;;;;;;;;;;22.36;31.00;98087.81;5023149;28;891;-78
2021/10/22 07:11:50;;;;;;;;;;;;;;;22.08;31.46;98092.19;5036759;28;1696;-79
2021/10/22 07:14:16;;;;;;;;;;;;;;;22.47;30.87;98100.88;5001302;28;1632;-79
2021/10/22 07:16:42;;;;;;;;;;;;;;;22.71;30.20;98096.53;5002346;28;1975;-79
2021/10/22 07:19:07;;;;;;;;;;;;;;;22.84;29.94;98099.38;4981342;28;965;-79
2021/10/22 07:21:37;;;;;;;;;;;;;;;22.61;30.48;98108.97;4983046;28;1744;-79
2021/10/22 07:24:10;;;;;;;;;;;;;;;22.95;29.77;98107.59;4981556;28;972;-78
2021/10/22 07:26:36;;;;;;;;;;;;;;;22.82;29.52;98099.03;4983130;28;1031;-79
2021/10/22 07:29:01;;;;;;;;;;;;;;;22.74;29.56;98107.00;4981485;28;965;-79
2021/10/22 07:31:26;;;;;;;;;;;;;;;22.45;30.18;98111.88;4974921;28;1758;-79
2021/10/22 07:33:52;;;;;;;;;;;;;;;22.42;30.41;98112.75;4961414;28;968;-79
2021/10/22 07:36:18;;;;;;;;;;;;;;;22.47;30.23;98103.72;4960410;29;949;-78
2021/10/22 07:38:44;;;;;;;;;;;;;;;22.60;30.11;98113.06;4947085;29;1914;-79
2021/10/22 07:41:09;;;;;;;;;;;;;;;22.66;29.98;98114.09;4970691;28;1594;-79
2021/10/22 07:43:36;;;;;;;;;;;;;;;22.67;29.95;98109.22;4949450;28;1033;-79
2021/10/22 07:46:02;;;;;;;;;;;;;;;22.48;29.79;98110.97;5017706;28;918;-79
2021/10/22 07:48:27;;;;;;;;;;;;;;;22.06;30.72;98113.72;5020700;28;1029;-79
2021/10/22 07:50:52;;;;;;;;;;;;;;;22.17;30.21;98117.09;5041310;28;1709;-79
2021/10/22 07:53:18;;;;;;;;;;;;;;;22.26;29.89;98117.25;5042649;28;961;-79
2021/10/22 07:55:44;;;;;;;;;;;;;;;22.31;29.13;98108.19;5045708;28;986;-79
2021/10/22 07:58:10;;;;;;;;;;;;;;;22.29;28.85;98116.34;5040024;28;1966;-78
2021/10/22 08:00:35;;;;;;;;;;;;;;;22.32;28.44;98109.78;5044760;28;847;-79
2021/10/22 08:03:01;;;;;;;;;;;;;;;22.31;28.24;98113.88;5043126;28;972;-79
2021/10/22 08:05:26;;;;;;;;;;;;;;;22.15;28.47;98110.28;5044180;28;896;-79
2021/10/22 08:07:52;;;;;;;;;;;;;;;22.20;28.02;98113.38;5030572;28;1638;-78
2021/10/22 08:10:18;;;;;;;;;;;;;;;22.31;27.71;98113.88;5024218;28;920;-79
2021/10/22 08:12:44;;;;;;;;;;;;;;;22.21;27.69;98114.16;5024114;28;897;-79
2021/10/22 08:15:09;;;;;;;;;;;;;;;22.25;27.63;98121.31;5023806;28;1055;-79
2021/10/22 08:17:35;;;;;;;;;;;;;;;22.04;27.50;98121.88;5044375;28;1922;-78
2021/10/22 08:20:10;;;;;;;;;;;;;;;22.20;27.36;98133.19;5042901;28;971;-78
2021/10/22 08:22:35;;;;;;;;;;;;;;;22.16;27.05;98132.50;5044810;28;881;-79
2021/10/22 08:25:10;;;;;;;;;;;;;;;22.18;27.16;98130.03;5043698;28;941;-79
2021/10/22 08:27:45;;;;;;;;;;;;;;;22.23;26.82;98137.19;5044454;28;1728;-78
2021/10/22 08:30:12;;;;;;;;;;;;;;;22.27;26.58;98133.00;5024691;28;992;-79
2021/10/22 08:32:37;;;;;;;;;;;;;;;22.14;27.04;98132.16;5041874;28;946;-78
2021/10/22 08:35:03;;;;;;;;;;;;;;;22.09;27.25;98135.50;5040855;28;867;-79
2021/10/22 08:37:30;;;;;;;;;;;;;;;22.12;27.18;98128.16;4990087;28;1910;-79
2021/10/22 08:39:55;;;;;;;;;;;;;;;22.23;26.89;98135.16;5021795;28;1000;-79
2021/10/22 08:42:21;;;;;;;;;;;;;;;22.31;26.80;98133.69;5023349;28;984;-79
2021/10/22 08:44:47;;;;;;;;;;;;;;;22.19;26.88;98128.00;5020554;28;1016;-79
2021/10/22 08:47:12;;;;;;;;;;;;;;;22.03;26.97;98125.94;5029813;28;1761;-79
2021/10/22 08:49:38;;;;;;;;;;;;;;;22.09;26.85;98127.00;5040467;28;929;-79
2021/10/22 08:52:04;;;;;;;;;;;;;;;22.11;26.84;98133.03;5042930;28;931;-78
2021/10/22 08:54:31;;;;;;;;;;;;;;;22.09;26.66;98127.00;5040228;28;988;-79
2021/10/22 08:56:56;;;;;;;;;;;;;;;22.13;26.74;98136.25;5040404;28;1918;-78
2021/10/22 08:59:22;;;;;;;;;;;;;;;22.27;27.97;98133.00;5003589;28;1073;-79
2021/10/22 09:02:06;;;;;;;;;;;;;;;22.33;28.60;98136.91;5041010;28;908;-79
2021/10/22 09:04:32;;;;;;;;;;;;;;;22.20;29.06;98138.88;5040411;28;898;-78
2021/10/22 09:06:58;;;;;;;;;;;;;;;22.22;28.97;98146.91;5042261;28;1743;-79
2021/10/22 09:09:23;;;;;;;;;;;;;;;22.32;29.02;98138.13;5044997;28;911;-79
2021/10/22 09:11:49;;;;;;;;;;;;;;;22.32;28.95;98143.78;5040796;28;1551;-79
2021/10/22 09:14:15;;;;;;;;;;;;;;;22.20;29.39;98144.53;5040583;28;951;-79
2021/10/22 09:16:48;;;;;;;;;;;;;;;22.13;29.47;98147.56;5044532;28;1918;-79
2021/10/22 09:19:36;;;;;;;;;;;;;;;22.23;29.24;98135.16;5040263;28;972;-79
2021/10/22 09:22:21;;;;;;;;;;;;;;;22.08;29.47;98133.91;5042926;28;981;-79
2021/10/22 09:24:49;;;;;;;;;;;;;;;22.19;28.77;98139.31;5041555;28;965;-79
2021/10/22 09:27:29;;;;;;;;;;;;;;;22.17;28.77;98139.75;5041780;28;1626;-78
2021/10/22 09:29:54;;;;;;;;;;;;;;;21.96;29.36;98131.78;5040667;28;1686;-79
2021/10/22 09:32:20;;;;;;;;;;;;;;;22.02;29.11;98127.16;5042755;28;1003;-78
2021/10/22 09:34:45;;;;;;;;;;;;;;;22.25;28.70;98129.81;5040073;28;1141;-78
2021/10/22 09:37:11;;;;;;;;;;;;;;;22.21;28.70;98119.81;5042118;28;1890;-79
2021/10/22 09:39:37;;;;;;;;;;;;;;;22.12;28.75;98125.31;5039595;28;1727;-78
2021/10/22 09:42:03;;;;;;;;;;;;;;;22.11;28.54;98127.38;5042808;28;1853;-79
2021/10/22 09:44:33;;;;;;;;;;;;;;;22.03;28.45;98120.28;5040171;28;964;-79
2021/10/22 09:47:04;;;;;;;;;;;;;;;22.10;28.68;98120.09;5042652;28;1009;-79
2021/10/22 09:49:30;;;;;;;;;;;;;;;22.07;28.56;98115.31;5040862;28;1557;-79
2021/10/22 09:51:56;;;;;;;;;;;;;;;22.05;28.48;98112.13;5042493;28;966;-79
2021/10/22 09:54:29;;;;;;;;;;;;;;;22.07;28.50;98103.97;5041973;28;936;-78
2021/10/22 09:56:56;;;;;;;;;;;;;;;22.15;28.20;98105.41;5043789;28;1964;-79
2021/10/22 09:59:26;;;;;;;;;;;;;;;22.14;28.45;98103.81;5042886;28;1659;-78
2021/10/22 10:01:54;;;;;;;;;;;;;;;22.05;28.22;98100.78;5043031;28;912;-79
2021/10/22 10:04:20;;;;;;;;;;;;;;;21.89;28.76;98092.31;5042478;28;898;-79
2021/10/22 10:06:45;;;;;;;;;;;;;;;21.98;28.30;98098.94;5045057;28;1050;-79
2021/10/22 10:09:11;;;;;;;;;;;;;;;21.99;28.45;98102.56;5000828;28;1743;-79
2021/10/22 10:11:37;;;;;;;;;;;;;;;21.99;28.37;98096.91;5003296;28;981;-79
2021/10/22 10:14:03;;;;;;;;;;;;;;;21.93;28.62;98098.69;5000627;28;1633;-78
2021/10/22 10:16:29;;;;;;;;;;;;;;;21.86;28.36;98099.66;4994500;28;1379;-79
2021/10/22 10:18:54;;;;;;;;;;;;;;;22.04;28.01;98090.72;4981564;28;1533;-80
2021/10/22 10:21:21;;;;;;;;;;;;;;;21.96;28.41;98092.13;4983317;28;939;-78
2021/10/22 10:23:46;;;;;;;;;;;;;;;21.86;28.33;98094.00;4997149;28;990;-79
2021/10/22 10:26:32;;;;;;;;;;;;;;;21.83;28.44;98083.56;4983388;28;1665;-79
2021/10/22 10:28:59;;;;;;;;;;;;;;;21.89;28.43;98086.66;4981140;28;1146;-79
2021/10/22 10:31:27;;;;;;;;;;;;;;;21.93;28.29;98081.69;4983286;28;943;-79
2021/10/22 10:33:54;;;;;;;;;;;;;;;22.07;28.01;98069.97;4981414;28;982;-79
2021/10/22 10:36:38;;;;;;;;;;;;;;;22.08;28.07;98077.25;4982823;28;1640;-78
2021/10/22 10:39:04;;;;;;;;;;;;;;;22.06;27.94;98079.72;4982547;28;1004;-78
2021/10/22 10:41:33;;;;;;;;;;;;;;;21.88;28.20;98073.75;5006309;28;960;-79
2021/10/22 10:44:27;;;;;;;;;;;;;;;21.88;28.34;98071.69;5020390;28;1022;-79
2021/10/22 10:46:53;;;;;;;;;;;;;;;21.83;28.34;98075.88;4982090;28;1530;-79
2021/10/22 10:49:36;;;;;;;;;;;;;;;21.78;28.60;98070.75;4980354;28;975;-79
2021/10/22 10:52:02;;;;;;;;;;;;;;;21.82;28.50;98068.63;4982586;28;1047;-79
2021/10/22 10:54:35;;;;;;;;;;;;;;;21.91;28.33;98061.50;4980698;28;967;-79
2021/10/22 10:57:20;;;;;;;;;;;;;;;21.88;28.50;98062.41;4981942;28;1911;-78
2021/10/22 10:59:45;;;;;;;;;;;;;;;21.99;28.31;98062.91;4980637;28;914;-79
2021/10/22 11:02:11;;;;;;;;;;;;;;;21.90;28.12;98062.75;4983630;28;885;-78
2021/10/22 11:04:45;;;;;;;;;;;;;;;22.01;28.30;98060.41;4947670;29;964;-79
2021/10/22 11:07:37;;;;;;;;;;;;;;;21.91;28.42;98058.66;4975022;28;1602;-78
2021/10/22 11:10:03;;;;;;;;;;;;;;;21.82;28.49;98060.13;4965481;28;1053;-79
2021/10/22 11:12:28;;;;;;;;;;;;;;;21.88;28.46;98051.06;4967501;28;1085;-78
2021/10/22 11:14:58;;;;;;;;;;;;;;;21.90;28.30;98059.91;4964962;28;993;-79
2021/10/22 11:17:32;;;;;;;;;;;;;;;22.00;28.11;98047.50;4953740;29;1950;-79
2021/10/22 11:20:00;;;;;;;;;;;;;;;21.90;28.01;98054.25;4929842;29;951;-79
2021/10/22 11:22:27;;;;;;;;;;;;;;;21.87;28.04;98050.28;4950447;29;942;-79
2021/10/22 11:24:52;;;;;;;;;;;;;;;21.93;28.13;98042.03;4962567;29;948;-80
2021/10/22 11:27:19;;;;;;;;;;;;;;;21.78;28.16;98048.09;4978463;28;1574;-78
2021/10/22 11:29:45;;;;;;;;;;;;;;;21.74;28.53;98057.91;4967032;28;1002;-79
2021/10/22 11:32:11;;;;;;;;;;;;;;;21.81;28.08;98058.53;4965367;29;1097;-79
2021/10/22 11:34:39;;;;;;;;;;;;;;;21.93;28.20;98053.38;4925561;29;965;-79
2021/10/22 11:37:06;;;;;;;;;;;;;;;21.88;27.99;98051.06;4917370;29;1899;-79
2021/10/22 11:39:45;;;;;;;;;;;;;;;21.84;28.26;98051.97;4906930;29;1013;-79
2021/10/22 11:42:17;;;;;;;;;;;;;;;21.81;28.33;98052.88;4908643;29;1054;-79
2021/10/22 11:44:45;;;;;;;;;;;;;;;21.93;27.84;98042.03;4906831;29;922;-78
2021/10/22 11:47:12;;;;;;;;;;;;;;;21.98;27.80;98047.94;4932733;29;1648;-79
2021/10/22 11:49:37;;;;;;;;;;;;;;;21.94;28.18;98032.28;4944731;29;1089;-79
2021/10/22 11:52:04;;;;;;;;;;;;;;;21.65;28.35;98050.03;4946863;29;896;-78
2021/10/22 11:54:37;;;;;;;;;;;;;;;21.85;28.20;98036.56;4944771;29;1029;-79
2021/10/22 11:57:03;;;;;;;;;;;;;;;21.81;28.24;98044.38;4945936;29;1981;-79
2021/10/22 11:59:29;;;;;;;;;;;;;;;21.74;28.20;98033.22;4944189;29;1130;-79
2021/10/22 12:02:03;;;;;;;;;;;;;;;21.78;27.99;98042.41;4945703;29;1219;-78
2021/10/22 12:04:29;;;;;;;;;;;;;;;21.89;28.14;98035.66;4945107;28;933;-78
2021/10/22 12:07:04;;;;;;;;;;;;;;;21.91;27.78;98033.97;4983622;28;1591;-79
2021/10/22 12:09:30;;;;;;;;;;;;;;;21.91;28.10;98030.34;4974169;28;1053;-79
2021/10/22 12:12:04;;;;;;;;;;;;;;;21.78;28.11;98036.75;4965474;29;883;-80
2021/10/22 12:14:56;;;;;;;;;;;;;;;21.77;28.23;98029.50;4963138;29;1027;-78
2021/10/22 12:17:23;;;;;;;;;;;;;;;21.71;28.25;98031.28;4922466;29;1906;-79
2021/10/22 12:19:50;;;;;;;;;;;;;;;21.75;28.12;98029.13;4924341;29;980;-79
2021/10/22 12:22:24;;;;;;;;;;;;;;;21.73;28.18;98025.97;4907569;29;976;-78
2021/10/22 12:24:51;;;;;;;;;;;;;;;21.79;28.19;98027.00;4905213;29;970;-79
2021/10/22 12:27:17;;;;;;;;;;;;;;;21.77;27.94;98023.84;4907863;29;1623;-79
2021/10/22 12:29:58;;;;;;;;;;;;;;;21.83;28.15;98024.09;4905823;29;969;-78
2021/10/22 12:32:31;;;;;;;;;;;;;;;21.76;28.05;98027.09;4908417;29;949;-79
2021/10/22 12:34:56;;;;;;;;;;;;;;;21.82;28.12;98023.28;4903156;29;1087;-80
2021/10/22 12:37:32;;;;;;;;;;;;;;;21.68;28.01;98020.84;4891938;29;1888;-77
2021/10/22 12:39:57;;;;;;;;;;;;;;;21.77;28.17;98018.16;4890330;29;968;-80
2021/10/22 12:42:24;;;;;;;;;;;;;;;21.81;27.74;98021.72;4892261;29;980;-79
2021/10/22 12:44:49;;;;;;;;;;;;;;;21.83;27.81;98015.59;4890287;29;894;-80
2021/10/22 12:47:15;;;;;;;;;;;;;;;21.71;28.17;98022.78;4892297;29;1601;-80
2021/10/22 12:49:40;;;;;;;;;;;;;;;21.60;28.36;98008.09;4891490;29;927;-81
2021/10/22 12:52:06;;;;;;;;;;;;;;;21.68;27.84;98015.19;4894610;29;924;-80
2021/10/22 12:54:47;;;;;;;;;;;;;;;21.56;28.35;98018.75;4993455;28;1091;-80
2021/10/22 12:57:22;;;;;;;;;;;;;;;21.67;27.84;98019.25;5028145;28;1961;-80
2021/10/22 12:59:48;;;;;;;;;;;;;;;21.64;28.45;98014.47;5027437;28;1071;-80
2021/10/22 13:02:26;;;;;;;;;;;;;;;21.68;28.43;98015.19;5029023;28;937;-80
2021/10/22 13:05:08;;;;;;;;;;;;;;;21.73;28.08;98017.47;5026463;28;924;-80
2021/10/22 13:07:58;;;;;;;;;;;;;;;21.68;28.53;98020.84;5027074;28;1743;-80
2021/10/22 13:13:23;;;;;;;;;;;;;;;21.72;28.49;98018.72;5023233;28;1592;-80